Terminal Aerodrome Forecast
Issued by NWS Cleveland, OH

Home | Current Version | Previous Version | Graphics & Text | Print | Product List | Glossary Off
Versions: 1 2 3 4 5 6 7 8 9 10 11 12 13 14 15 16

000
FTUS41 KCLE 241905 AAA
TAFERI
TAF AMD
KERI 241905Z 2419/2518 15012KT P6SM -SHRA OVC040
     FM250100 10005KT P6SM -SHRA OVC030
     FM250700 09005KT 6SM -SHRA OVC015
     FM251200 09004KT 3SM BR OVC007=

USA.gov is the U.S. government's official web portal to all federal, state and local government web resources and services.